createdAt,value
2018-07-04T00:01:10.795Z,46.90
2018-07-04T00:03:49.594Z,46.80
2018-07-04T00:06:28.258Z,47.10
2018-07-04T00:09:06.877Z,47.20
2018-07-04T00:11:45.446Z,47.10
2018-07-04T00:14:23.941Z,47.20
2018-07-04T00:17:02.478Z,47.40
2018-07-04T00:19:41.945Z,47.70
2018-07-04T00:22:20.706Z,47.90
2018-07-04T00:24:59.411Z,48.00
2018-07-04T00:27:37.976Z,48.20
2018-07-04T00:30:16.516Z,48.30
2018-07-04T00:32:55.036Z,48.60
2018-07-04T00:35:33.649Z,48.90
2018-07-04T00:38:12.252Z,49.00
2018-07-04T00:40:50.838Z,49.10
2018-07-04T00:43:29.410Z,49.20
2018-07-04T00:46:07.959Z,49.20
2018-07-04T00:48:46.445Z,49.00
2018-07-04T00:51:25.190Z,49.20
2018-07-04T00:54:03.712Z,49.30
2018-07-04T00:56:42.344Z,49.30
2018-07-04T00:59:20.892Z,49.40
2018-07-04T01:01:59.441Z,49.90
2018-07-04T01:04:38.186Z,50.40
2018-07-04T01:07:16.791Z,50.80
2018-07-04T01:09:55.724Z,51.10
2018-07-04T01:12:34.405Z,51.40
2018-07-04T01:15:12.954Z,51.50
2018-07-04T01:17:51.539Z,51.50
2018-07-04T01:20:35.916Z,51.60
2018-07-04T01:23:14.617Z,51.90
2018-07-04T01:25:53.297Z,51.90
2018-07-04T01:28:37.670Z,52.00
2018-07-04T01:31:16.445Z,52.00
2018-07-04T01:33:55.063Z,52.10
2018-07-04T01:36:33.868Z,52.20
2018-07-04T01:39:12.524Z,52.20
2018-07-04T01:41:51.383Z,52.00
2018-07-04T01:44:30.053Z,51.80
2018-07-04T01:47:08.647Z,52.00
2018-07-04T01:49:47.223Z,52.30
2018-07-04T01:52:25.871Z,52.50
2018-07-04T01:55:04.397Z,52.40
2018-07-04T01:57:43.024Z,52.40
2018-07-04T02:00:21.614Z,52.30
2018-07-04T02:03:00.201Z,52.40
2018-07-04T02:05:38.725Z,52.40
2018-07-04T02:08:17.370Z,52.60
2018-07-04T02:10:56.050Z,52.30
2018-07-04T02:13:34.795Z,52.30
2018-07-04T02:16:13.620Z,51.80
2018-07-04T02:18:52.163Z,51.70
2018-07-04T02:21:30.653Z,51.60
2018-07-04T02:24:09.228Z,51.20
2018-07-04T02:26:47.716Z,51.00
2018-07-04T02:29:26.633Z,50.50
2018-07-04T02:32:05.267Z,50.70
2018-07-04T02:34:43.870Z,50.90
2018-07-04T02:37:22.437Z,51.20
2018-07-04T02:40:01.037Z,51.30
2018-07-04T02:42:39.611Z,51.40
2018-07-04T02:45:18.178Z,51.60
2018-07-04T02:47:56.718Z,51.70
2018-07-04T02:50:35.271Z,51.90
2018-07-04T02:53:13.894Z,52.00
2018-07-04T02:55:52.781Z,51.70
2018-07-04T02:58:31.907Z,51.90
2018-07-04T03:01:10.520Z,52.10
2018-07-04T03:03:49.620Z,52.00
2018-07-04T03:06:28.380Z,52.10
2018-07-04T03:09:07.756Z,52.10
2018-07-04T03:11:46.513Z,52.10
2018-07-04T03:14:25.096Z,52.30
2018-07-04T03:17:03.605Z,52.20
2018-07-04T03:19:42.249Z,52.10
2018-07-04T03:22:20.861Z,51.60
2018-07-04T03:24:59.647Z,51.30
2018-07-04T03:27:38.354Z,51.30
2018-07-04T03:30:16.948Z,51.20
2018-07-04T03:32:55.787Z,51.70
2018-07-04T03:35:34.299Z,51.50
2018-07-04T03:38:12.946Z,51.30
2018-07-04T03:40:51.452Z,51.20
2018-07-04T03:43:30.236Z,51.30
2018-07-04T03:46:10.029Z,51.40
2018-07-04T03:48:48.665Z,51.60
2018-07-04T03:51:27.548Z,51.50
2018-07-04T03:54:06.444Z,51.60
2018-07-04T03:56:45.295Z,51.90
2018-07-04T03:59:23.984Z,52.30
2018-07-04T04:02:02.710Z,52.70
2018-07-04T04:04:41.273Z,53.10
2018-07-04T04:07:19.927Z,53.40
2018-07-04T04:09:58.536Z,53.80
2018-07-04T04:12:37.190Z,53.70
2018-07-04T04:15:15.940Z,53.70
2018-07-04T04:17:54.520Z,53.90
2018-07-04T04:20:33.041Z,54.00
2018-07-04T04:23:11.935Z,54.00
2018-07-04T04:25:50.545Z,54.00
2018-07-04T04:28:29.348Z,53.80
2018-07-04T04:31:08.030Z,53.70
2018-07-04T04:33:46.631Z,53.40
2018-07-04T04:36:25.218Z,53.30
2018-07-04T04:39:04.045Z,53.50
2018-07-04T04:41:42.847Z,53.40
2018-07-04T04:44:21.868Z,53.70
2018-07-04T04:47:01.337Z,53.70
2018-07-04T04:49:39.891Z,53.60
2018-07-04T04:52:18.544Z,53.30
2018-07-04T04:54:57.832Z,53.40
2018-07-04T04:57:36.444Z,53.40
2018-07-04T05:00:15.286Z,53.60
2018-07-04T05:02:53.986Z,53.90
2018-07-04T05:05:32.800Z,54.00
2018-07-04T05:08:11.420Z,53.60
2018-07-04T05:10:50.298Z,53.90
2018-07-04T05:13:28.950Z,53.60
2018-07-04T05:16:08.066Z,53.30
2018-07-04T05:35:31.749Z,52.90
2018-07-04T05:38:13.514Z,53.30
2018-07-04T05:40:52.531Z,53.00
2018-07-04T05:43:31.245Z,52.90
2018-07-04T05:46:09.841Z,52.80
2018-07-04T05:48:48.400Z,52.60
2018-07-04T05:51:26.985Z,51.60
2018-07-04T05:54:05.621Z,51.60
2018-07-04T05:56:44.418Z,51.80
2018-07-04T05:59:23.183Z,51.50
2018-07-04T06:02:01.853Z,51.60
2018-07-04T06:04:40.383Z,51.70
2018-07-04T06:07:20.416Z,52.20
2018-07-04T06:09:59.028Z,51.70
2018-07-04T06:12:41.887Z,50.70
2018-07-04T06:15:20.569Z,50.20
2018-07-04T06:17:59.248Z,49.90
2018-07-04T06:20:37.891Z,49.60
2018-07-04T06:23:17.115Z,50.10
2018-07-04T06:25:55.851Z,49.70
2018-07-04T06:28:34.496Z,49.20
2018-07-04T06:31:13.598Z,48.40
2018-07-04T06:33:52.412Z,48.60
2018-07-04T06:36:32.016Z,48.30
2018-07-04T06:38:58.907Z,48.10
2018-07-04T06:41:25.271Z,48.10
2018-07-04T06:43:51.592Z,48.50
2018-07-04T06:46:17.913Z,48.70
2018-07-04T06:48:44.213Z,49.10
2018-07-04T06:51:10.659Z,48.60
2018-07-04T06:53:36.921Z,49.10
2018-07-04T06:56:03.308Z,48.90
2018-07-04T06:58:29.546Z,48.60
2018-07-04T07:00:56.064Z,48.40
2018-07-04T07:03:34.989Z,49.80
2018-07-04T07:06:13.614Z,49.80
2018-07-04T07:08:52.336Z,50.00
2018-07-04T07:11:31.184Z,50.10
2018-07-04T07:14:09.867Z,49.60
2018-07-04T07:16:48.413Z,49.50
2018-07-04T07:19:27.128Z,48.80
2018-07-04T07:22:06.084Z,47.70
2018-07-04T07:24:44.637Z,46.60
2018-07-04T07:27:23.268Z,47.70
2018-07-04T07:30:02.128Z,47.90
2018-07-04T07:32:40.647Z,47.80
2018-07-04T07:35:19.453Z,48.10
2018-07-04T07:37:59.174Z,48.00
2018-07-04T07:40:37.629Z,48.10
2018-07-04T07:43:16.215Z,48.70
2018-07-04T07:45:54.863Z,48.70
2018-07-04T07:48:34.279Z,48.90
2018-07-04T07:51:12.795Z,48.90
2018-07-04T07:53:53.334Z,49.00
2018-07-04T07:56:32.118Z,49.10
2018-07-04T07:59:10.726Z,49.20
2018-07-04T08:01:49.276Z,49.20
2018-07-04T08:04:27.876Z,49.20
2018-07-04T08:07:06.639Z,49.20
2018-07-04T08:09:45.174Z,49.60
2018-07-04T08:12:23.786Z,49.70
2018-07-04T08:15:02.293Z,49.50
2018-07-04T08:17:40.783Z,49.70
2018-07-04T08:20:19.403Z,49.80
2018-07-04T08:22:57.900Z,49.80
2018-07-04T08:25:36.660Z,49.10
2018-07-04T08:28:15.308Z,48.80
2018-07-04T08:30:53.934Z,48.20
2018-07-04T08:33:32.750Z,48.30
2018-07-04T08:36:11.395Z,48.30
2018-07-04T08:38:50.208Z,48.70
2018-07-04T08:41:28.802Z,47.80
2018-07-04T08:44:08.166Z,47.50
2018-07-04T08:46:46.718Z,47.50
2018-07-04T08:49:25.361Z,46.50
2018-07-04T08:52:03.909Z,46.40
2018-07-04T08:54:42.556Z,46.20
2018-07-04T08:57:21.797Z,45.70
2018-07-04T09:00:00.330Z,46.10
2018-07-04T09:02:38.824Z,45.00
2018-07-04T09:05:17.566Z,44.30
2018-07-04T09:07:56.221Z,43.30
2018-07-04T09:10:34.808Z,43.40
2018-07-04T09:13:13.658Z,43.00
2018-07-04T09:15:52.232Z,43.70
2018-07-04T09:18:30.720Z,43.30
2018-07-04T09:21:09.343Z,43.30
2018-07-04T09:23:48.133Z,43.70
2018-07-04T09:26:26.803Z,44.00
2018-07-04T09:29:05.577Z,44.50
2018-07-04T09:31:44.392Z,44.50
2018-07-04T09:34:23.800Z,44.40
2018-07-04T09:39:49.204Z,43.50
2018-07-04T09:42:33.860Z,43.80
2018-07-04T09:45:12.944Z,43.00
2018-07-04T09:47:51.469Z,43.10
2018-07-04T09:50:30.049Z,42.20
2018-07-04T09:53:10.275Z,41.50
2018-07-04T09:55:49.064Z,41.80
2018-07-04T09:58:27.709Z,42.40
2018-07-04T10:01:12.034Z,42.70
2018-07-04T10:03:50.545Z,43.00
2018-07-04T10:06:29.492Z,43.60
2018-07-04T10:09:08.437Z,43.20
2018-07-04T10:11:47.367Z,43.50
2018-07-04T10:14:25.972Z,43.40
2018-07-04T10:17:04.539Z,43.30
2018-07-04T10:19:43.279Z,43.40
2018-07-04T10:22:21.764Z,43.20
2018-07-04T10:25:00.654Z,42.50
2018-07-04T10:27:39.281Z,42.00
2018-07-04T10:30:17.911Z,42.00
2018-07-04T10:32:56.584Z,42.50
2018-07-04T10:35:35.899Z,42.30
2018-07-04T10:38:14.502Z,41.60
2018-07-04T10:40:53.236Z,41.90
2018-07-04T10:43:31.932Z,42.50
2018-07-04T10:46:10.477Z,42.80
2018-07-04T10:48:49.709Z,42.10
2018-07-04T10:51:28.432Z,41.40
2018-07-04T10:54:07.303Z,41.50
2018-07-04T10:56:46.392Z,42.00
2018-07-04T10:59:25.543Z,42.20
2018-07-04T11:02:04.245Z,42.50
2018-07-04T11:04:42.772Z,41.90
2018-07-04T11:07:21.460Z,42.10
2018-07-04T11:10:00.217Z,42.50
2018-07-04T11:12:38.747Z,41.90
2018-07-04T11:15:17.347Z,41.90
2018-07-04T11:17:56.503Z,41.40
2018-07-04T11:20:35.173Z,41.10
2018-07-04T11:23:13.739Z,41.10
2018-07-04T11:25:52.288Z,40.90
2018-07-04T11:28:31.648Z,40.30
2018-07-04T11:31:10.938Z,40.70
2018-07-04T11:33:49.644Z,40.20
2018-07-04T11:36:28.240Z,40.60
2018-07-04T11:39:06.796Z,40.70
2018-07-04T11:41:45.340Z,40.50
2018-07-04T11:44:23.847Z,40.20
2018-07-04T11:46:50.149Z,40.50
2018-07-04T11:49:16.380Z,40.60
2018-07-04T11:51:42.589Z,40.70
2018-07-04T11:54:09.580Z,40.70
2018-07-04T11:56:36.108Z,40.40
2018-07-04T11:59:02.448Z,40.60
2018-07-04T12:01:28.686Z,40.50
2018-07-04T12:04:07.366Z,40.10
2018-07-04T12:06:45.967Z,39.90
2018-07-04T12:09:12.308Z,39.50
2018-07-04T12:11:38.530Z,39.30
2018-07-04T12:14:04.896Z,39.20
2018-07-04T12:16:31.150Z,39.50
2018-07-04T12:18:57.420Z,39.30
2018-07-04T12:21:23.730Z,39.40
2018-07-04T12:23:49.932Z,39.40
2018-07-04T12:26:16.598Z,39.60
2018-07-04T12:28:42.934Z,39.50
2018-07-04T12:31:09.282Z,39.70
2018-07-04T12:33:35.571Z,40.20
2018-07-04T12:36:01.813Z,39.90
2018-07-04T12:38:28.074Z,40.20
2018-07-04T12:40:54.272Z,40.60
2018-07-04T12:43:20.515Z,40.20
2018-07-04T12:45:46.776Z,39.20
2018-07-04T12:48:12.989Z,39.10
2018-07-04T12:50:39.282Z,39.60
2018-07-04T12:53:05.501Z,38.80
2018-07-04T12:55:44.212Z,38.70
2018-07-04T12:58:22.748Z,38.70
2018-07-04T13:01:01.282Z,38.80
2018-07-04T13:03:39.840Z,39.10
2018-07-04T13:06:18.452Z,38.90
2018-07-04T13:08:57.225Z,38.10
2018-07-04T13:11:36.304Z,37.70
2018-07-04T13:14:14.952Z,37.60
2018-07-04T13:16:54.759Z,38.50
2018-07-04T13:19:33.806Z,39.10
2018-07-04T13:22:13.439Z,39.50
2018-07-04T13:24:52.067Z,39.40
2018-07-04T13:27:30.977Z,39.40
2018-07-04T13:30:09.627Z,39.20
2018-07-04T13:32:48.122Z,39.40
2018-07-04T13:35:26.611Z,39.80
2018-07-04T13:38:05.804Z,40.40
2018-07-04T13:40:44.485Z,40.70
2018-07-04T13:43:23.087Z,40.30
2018-07-04T13:46:01.827Z,40.70
2018-07-04T13:48:41.354Z,41.10
2018-07-04T13:51:21.237Z,41.10
2018-07-04T13:54:00.622Z,41.20
2018-07-04T13:56:39.278Z,43.00
2018-07-04T13:59:18.258Z,45.80
2018-07-04T14:01:58.244Z,47.30
2018-07-04T14:04:36.949Z,48.50
2018-07-04T14:07:15.448Z,49.10
2018-07-04T14:26:45.946Z,55.40
2018-07-04T14:29:24.504Z,55.90
2018-07-04T14:32:03.487Z,56.30
2018-07-04T14:34:42.066Z,56.70
2018-07-04T14:37:20.830Z,57.30
2018-07-04T14:39:59.458Z,57.40
2018-07-04T14:42:38.098Z,57.30
2018-07-04T14:45:16.947Z,57.10
2018-07-04T14:47:55.875Z,57.00
2018-07-04T14:50:34.688Z,56.90
2018-07-04T14:53:13.646Z,57.30
2018-07-04T14:55:52.269Z,58.10
2018-07-04T14:58:31.739Z,58.20
2018-07-04T15:01:10.880Z,58.80
2018-07-04T15:03:49.489Z,59.10
2018-07-04T15:06:28.030Z,59.80
2018-07-04T15:09:06.724Z,60.80
2018-07-04T15:11:45.420Z,61.80
2018-07-04T15:14:23.966Z,62.80
2018-07-04T15:17:02.510Z,63.20
2018-07-04T15:19:41.325Z,63.80
2018-07-04T15:22:20.037Z,64.00
2018-07-04T15:24:58.676Z,64.40
2018-07-04T15:27:38.528Z,64.70
2018-07-04T15:30:18.813Z,64.60
2018-07-04T15:32:57.324Z,65.40
2018-07-04T15:35:35.959Z,65.20
2018-07-04T15:38:14.705Z,64.70
2018-07-04T15:40:53.682Z,64.40
2018-07-04T15:43:34.603Z,63.90
2018-07-04T15:46:13.330Z,63.60
2018-07-04T15:48:51.890Z,64.00
2018-07-04T15:51:30.406Z,64.40
2018-07-04T16:10:52.980Z,66.40
2018-07-04T16:13:31.597Z,67.30
2018-07-04T16:16:10.177Z,67.80
2018-07-04T16:18:48.741Z,68.00
2018-07-04T16:21:28.014Z,69.40
2018-07-04T16:24:06.700Z,70.20
2018-07-04T16:26:45.364Z,70.10
2018-07-04T16:29:24.040Z,70.90
2018-07-04T16:32:02.589Z,71.00
2018-07-04T16:34:42.079Z,71.50
2018-07-04T16:37:21.123Z,71.40
2018-07-04T16:39:59.676Z,72.60
2018-07-04T16:42:38.285Z,74.30
2018-07-04T16:45:17.129Z,75.70
2018-07-04T16:47:56.042Z,76.40
2018-07-04T16:50:35.217Z,76.90
2018-07-04T16:53:13.738Z,77.70
2018-07-04T16:55:52.655Z,77.90
2018-07-04T16:58:31.706Z,78.30
2018-07-04T17:01:10.565Z,78.00
2018-07-04T17:03:49.409Z,78.50
2018-07-04T17:06:28.168Z,79.40
2018-07-04T17:09:07.812Z,80.60
2018-07-04T17:11:46.554Z,81.60
2018-07-04T17:14:25.218Z,82.60
2018-07-04T17:17:03.910Z,83.20
2018-07-04T17:19:42.851Z,83.30
2018-07-04T17:22:21.573Z,83.00
2018-07-04T17:25:02.470Z,82.60
2018-07-04T17:27:40.953Z,82.50
2018-07-04T17:30:19.733Z,82.40
2018-07-04T17:32:59.006Z,81.70
2018-07-04T17:35:37.550Z,81.30
2018-07-04T17:38:16.437Z,81.40
2018-07-04T17:40:55.029Z,81.30
2018-07-04T17:43:33.589Z,81.10
2018-07-04T17:46:12.186Z,81.10
2018-07-04T17:48:51.285Z,81.10
2018-07-04T17:51:29.962Z,81.50
2018-07-04T17:54:09.851Z,81.50
2018-07-04T17:56:48.592Z,81.60
2018-07-04T17:59:27.170Z,81.40
2018-07-04T18:02:05.809Z,81.40
2018-07-04T18:04:44.305Z,81.40
2018-07-04T18:07:23.920Z,82.00
2018-07-04T18:26:47.212Z,91.90
2018-07-04T18:29:25.757Z,92.20
2018-07-04T18:32:05.156Z,92.50
2018-07-04T18:34:43.743Z,92.80
2018-07-04T18:37:23.215Z,93.20
2018-07-04T18:40:01.787Z,93.10
2018-07-04T18:42:40.282Z,92.90
2018-07-04T18:45:18.912Z,93.00
2018-07-04T18:47:57.804Z,93.20
2018-07-04T18:50:36.603Z,93.20
2018-07-04T18:53:15.384Z,93.30
2018-07-04T18:55:55.550Z,93.50
2018-07-04T18:58:34.294Z,93.80
2018-07-04T19:01:13.071Z,94.10
2018-07-04T19:03:52.799Z,94.60
2018-07-04T19:06:32.509Z,95.10
2018-07-04T19:09:11.185Z,95.70
2018-07-04T19:11:50.120Z,95.80
2018-07-04T19:14:28.965Z,96.10
2018-07-04T19:17:07.497Z,96.30
2018-07-04T19:19:46.558Z,96.40
2018-07-04T19:22:25.184Z,96.60
2018-07-04T19:25:04.114Z,96.60
2018-07-04T19:27:42.757Z,96.90
2018-07-04T19:30:24.037Z,97.20
2018-07-04T19:33:02.952Z,97.60
2018-07-04T19:35:43.006Z,98.00
2018-07-04T19:38:21.615Z,98.20
2018-07-04T19:41:00.398Z,98.40
2018-07-04T19:43:38.992Z,98.70
2018-07-04T19:46:19.713Z,98.90
2018-07-04T19:48:58.661Z,99.00
2018-07-04T19:51:37.255Z,99.20
2018-07-04T19:54:16.281Z,99.20
2018-07-04T19:56:57.105Z,99.20
2018-07-04T19:59:36.537Z,99.10
2018-07-04T20:02:15.155Z,98.90
2018-07-04T20:04:53.714Z,98.80
2018-07-04T20:07:32.386Z,98.80
2018-07-04T20:10:10.884Z,98.80
2018-07-04T20:12:49.389Z,98.80
2018-07-04T20:15:28.071Z,99.00
2018-07-04T20:18:06.632Z,99.10
2018-07-04T20:20:45.246Z,99.20
2018-07-04T20:23:25.277Z,99.10
2018-07-04T20:26:03.854Z,99.20
2018-07-04T20:28:42.444Z,99.40
2018-07-04T20:31:25.522Z,99.80
2018-07-04T20:34:04.026Z,99.90
2018-07-04T20:36:42.623Z,99.90
2018-07-04T20:39:21.728Z,99.90
2018-07-04T20:42:00.634Z,99.90
2018-07-04T20:44:40.062Z,99.90
2018-07-04T20:47:19.200Z,99.90
2018-07-04T20:49:57.787Z,99.90
2018-07-04T20:52:39.608Z,99.90
2018-07-04T20:55:18.435Z,99.90
2018-07-04T20:57:57.207Z,99.90
2018-07-04T21:00:36.842Z,99.90
2018-07-04T21:03:15.361Z,99.90
2018-07-04T21:05:54.948Z,99.90
2018-07-04T21:08:33.719Z,99.90
2018-07-04T21:11:15.468Z,99.90
2018-07-04T21:13:55.295Z,99.90
2018-07-04T21:16:33.897Z,99.90
2018-07-04T21:19:12.534Z,99.90
2018-07-04T21:21:51.103Z,99.90
2018-07-04T21:24:30.196Z,99.90
2018-07-04T21:27:09.253Z,99.90
2018-07-04T21:29:47.934Z,99.90
2018-07-04T21:32:26.402Z,99.90
2018-07-04T21:35:05.116Z,99.90
2018-07-04T21:37:43.633Z,99.90
2018-07-04T21:40:22.226Z,99.90
2018-07-04T21:43:00.908Z,99.90
2018-07-04T21:45:40.106Z,99.90
2018-07-04T21:48:18.714Z,99.90
2018-07-04T21:50:57.248Z,99.90
2018-07-04T21:53:35.832Z,99.90
2018-07-04T21:56:14.374Z,99.90
2018-07-04T21:58:53.013Z,99.90
2018-07-04T22:01:31.698Z,99.90
2018-07-04T22:04:10.515Z,99.90
2018-07-04T22:06:48.871Z,99.90
2018-07-04T22:09:27.407Z,99.90
2018-07-04T22:12:05.894Z,99.90
2018-07-04T22:14:44.728Z,99.90
2018-07-04T22:17:23.384Z,99.90
2018-07-04T22:20:02.011Z,99.90
2018-07-04T22:22:40.570Z,99.90
2018-07-04T22:25:19.066Z,99.90
2018-07-04T22:27:57.526Z,99.90
2018-07-04T22:30:36.025Z,99.90
2018-07-04T22:33:14.542Z,99.90
2018-07-04T22:35:53.204Z,99.90
2018-07-04T22:38:32.076Z,99.90
2018-07-04T22:41:10.564Z,99.90
2018-07-04T22:43:49.105Z,99.90
2018-07-04T22:46:27.655Z,99.90
2018-07-04T22:49:06.237Z,99.90
2018-07-04T22:51:44.793Z,99.90
2018-07-04T22:54:23.445Z,99.90
2018-07-04T22:57:02.022Z,99.90
2018-07-04T22:59:40.609Z,99.90
2018-07-04T23:04:52.019Z,99.90
2018-07-04T23:07:30.449Z,99.90
2018-07-04T23:20:30.993Z,99.90
2018-07-04T23:23:09.863Z,99.90
2018-07-04T23:25:48.587Z,99.90
2018-07-04T23:28:27.204Z,99.90
2018-07-04T23:31:06.000Z,99.90
2018-07-04T23:33:44.847Z,99.90
2018-07-04T23:36:23.591Z,99.90
2018-07-04T23:39:02.922Z,99.90
2018-07-04T23:41:41.541Z,99.90
2018-07-04T23:44:20.102Z,99.90
2018-07-04T23:46:58.723Z,99.90
2018-07-04T23:49:37.336Z,99.90
2018-07-04T23:52:16.077Z,99.90
2018-07-04T23:54:54.539Z,99.90
2018-07-04T23:57:33.030Z,99.90
